Aviation Digital Data Service (ADDS)

Output produced by METARs form (1828 UTC 18 April 2019)
found at http://www.aviationweather.gov/metar/data/
 
Forecast for: SBCT (CURITIBA/AFONSO , BR)
Text: TAF SBCT 181530Z 1818/1918 25005KT 9999 FEW030 TN12/1908Z TX28/1918Z
Forecast period: 1800 UTC 18 April 2019 to 1800 UTC 19 April 2019
Forecast type: FROM: standard forecast or significant change
Winds: from the WSW (250 degrees) at 6 MPH (5 knots; 2.6 m/s)
Visibility: 6 or more miles 10+ km)
Ceiling: at least 12,000 feet AGL
Clouds: few clouds at 3000 feet AGL
Weather: no significant weather forecast for this period
Text: BECMG 1818/1820 12005KT
Forecast period: 1800 UTC 18 April 2019 to 1800 UTC 19 April 2019
Forecast type: BECOMING: Conditions expected to become as follows by 2000 UTC 18 April 2019
Winds: from the ESE (120 degrees) at 6 MPH (5 knots; 2.6 m/s)
Visibility: 6 or more miles 10+ km)
Ceiling: at least 12,000 feet AGL
Clouds: few clouds at 3000 feet AGL
Weather: no significant weather forecast for this period
Text: PROB40
Forecast period: 0600 to 1100 UTC 19 April 2019
Forecast type: TEMPORARY: The following changes expected for less than half the time period
Visibility: 0.37 miles (0.60 km)
Ceiling: 200 feet AGL
Clouds: broken clouds at 200 feet AGL
Weather: FG  (fog)